Trinidad, Cuba

10:51 AM CDT on September 01, 2014 (GMT -0400)
Jaime Gonzalez | Change Station
CLOSE
Current Station
Airport
Location: Cienfuegos,
Elevation: 128 ft
Nearby Weather Stations

Elev 128 ft 22.15 °N, 80.41 °W | Updated 1 hour ago

Partly Cloudy
Partly Cloudy
86 °F
Feels Like 97 °F
N
5
Wind Variable Wind from East

Today
High -- | Low -- °F
--% Chance of Precip.
Yesterday
High -- | Low -- °F
Precip. -- in
7:03 AM 7:36 PM
Waxing Crescent, 41% visible
Pressure 30.06 in
Visibility 6.2 miles
Clouds Few 2500 ft
Heat Index 97 °F
Dew Point 77 °F
Humidity 74%
Rainfall 0.00 in
Snow Depth Not available.
UV 6 out of 12
Pollen Not available.
Air Quality Not available.
Flu Activity Not available.
METAR MUCF 011351Z 08004KT 020V150 9999 FEW025 30/25 Q1018

More Conditions Fewer Conditions

Pressure 30.06 in
Visibility 6.2 miles
Clouds Few 2500 ft
Heat Index 97 °F
Dew Point 77 °F
Humidity 74%
Rainfall 0.00 in
Snow Depth Not available.
UV 6 out of 12
Pollen Not available.
Air Quality Not available.
Flu Activity Not available.
METAR MUCF 011351Z 08004KT 020V150 9999 FEW025 30/25 Q1018

More Conditions Fewer Conditions

10-Day Weather Forecast

Almanac

Astronomy

Sep. 01, 2014 Rise Set
Actual Time 7:03 AM CDT 7:36 PM CDT
Civil Twilight 6:40 AM CDT 7:58 PM CDT
Nautical Twilight 6:13 AM CDT 8:25 PM CDT
Astronomical Twilight 5:47 AM CDT 8:52 PM CDT
Moon 12:59 PM CDT No Moon Set
Length of Visible Light 13h 18m
Length of Day
12h 33m
Tomorrow will be 1m 11s shorter.
Waxing Crescent, 41% of the Moon is Illuminated
Today
Waxing Crescent
Sep 2
First Quarter
Sep 8
Full
Sep 15
Last Quarter
Sep 24
New

Today's Extremes

Country Highs Country Lows

Community

WunderPhotos

Upload Photos

1,749,253 photos uploaded!

Nearby

Snow Depth

Not available.

Earthquake Activity

City Distance Mag. Time & Date
No recent earthquake activity has been reported nearby.
Minimum magnitude displayed is 2.5.

Coastal Water Temperatures

Place Temperature
No Stations Reporting

Nearby Weather Stations